createdAt,value
2023-05-21T00:00:12.916Z,101295.56
2023-05-21T00:02:41.179Z,101293.09
2023-05-21T00:05:14.390Z,101293.81
2023-05-21T00:07:44.141Z,101291.06
2023-05-21T00:10:12.503Z,101293.97
2023-05-21T00:12:41.647Z,101292.09
2023-05-21T00:15:10.496Z,101288.31
2023-05-21T00:17:40.040Z,101292.09
2023-05-21T00:20:10.019Z,101278.13
2023-05-21T00:22:37.905Z,101276.53
2023-05-21T00:25:08.054Z,101275.50
2023-05-21T00:27:35.929Z,101275.84
2023-05-21T00:30:04.023Z,101276.88
2023-05-21T00:32:32.068Z,101276.00
2023-05-21T00:34:59.938Z,101267.88
2023-05-21T00:37:32.358Z,101265.13
2023-05-21T00:40:00.309Z,101271.97
2023-05-21T00:42:30.744Z,101267.88
2023-05-21T00:44:58.904Z,101268.03
2023-05-21T00:47:29.608Z,101262.50
2023-05-21T00:49:57.786Z,101257.00
2023-05-21T00:52:27.029Z,101261.50
2023-05-21T00:54:55.162Z,101260.63
2023-05-21T00:57:27.328Z,101255.81
2023-05-21T00:59:56.804Z,101254.22
2023-05-21T01:02:26.169Z,101258.72
2023-05-21T01:04:56.035Z,101264.97
2023-05-21T01:07:23.912Z,101258.56
2023-05-21T01:09:51.982Z,101256.69
2023-05-21T01:12:21.783Z,101261.19
2023-05-21T01:14:50.756Z,101250.28
2023-05-21T01:17:24.249Z,101259.28
2023-05-21T01:19:54.723Z,101261.19
2023-05-21T01:22:24.932Z,101254.94
2023-05-21T01:24:55.578Z,101260.31
2023-05-21T01:27:23.537Z,101265.13
2023-05-21T01:29:51.582Z,101255.97
2023-05-21T01:32:26.088Z,101258.56
2023-05-21T01:35:00.874Z,101254.06
2023-05-21T01:37:35.125Z,101248.72
2023-05-21T01:40:12.300Z,101248.72
2023-05-21T01:42:42.467Z,101245.44
2023-05-21T01:45:11.792Z,101245.56
2023-05-21T01:47:41.156Z,101251.97
2023-05-21T01:50:10.828Z,101240.22
2023-05-21T01:52:39.492Z,101242.25
2023-05-21T01:55:09.495Z,101245.00
2023-05-21T01:57:37.340Z,101243.44
2023-05-21T02:00:07.464Z,101241.53
2023-05-21T02:02:43.264Z,101248.28
2023-05-21T02:05:11.493Z,101243.78
2023-05-21T02:07:40.380Z,101245.66
2023-05-21T02:10:10.622Z,101243.78
2023-05-21T02:12:38.840Z,101243.22
2023-05-21T02:15:08.003Z,101246.84
2023-05-21T02:17:36.169Z,101235.09
2023-05-21T02:20:11.416Z,101231.50
2023-05-21T02:22:39.991Z,101233.53
2023-05-21T02:25:10.999Z,101229.75
2023-05-21T02:27:39.834Z,101229.19
2023-05-21T02:30:09.426Z,101223.81
2023-05-21T02:32:37.629Z,101225.72
2023-05-21T02:35:06.118Z,101224.16
2023-05-21T02:37:34.783Z,101234.34
2023-05-21T02:40:05.932Z,101227.06
2023-05-21T02:42:36.565Z,101220.69
2023-05-21T02:45:04.983Z,101226.50
2023-05-21T02:47:32.914Z,101214.59
2023-05-21T02:50:01.863Z,101220.13
2023-05-21T02:52:30.402Z,101218.56
2023-05-21T02:54:58.246Z,101214.94
2023-05-21T02:57:26.242Z,101221.47
2023-05-21T02:59:55.478Z,101216.84
2023-05-21T03:02:24.861Z,101218.88
2023-05-21T03:04:52.808Z,101214.53
2023-05-21T03:07:20.712Z,101213.84
2023-05-21T03:09:48.980Z,101211.09
2023-05-21T03:12:16.942Z,101206.75
2023-05-21T03:14:46.435Z,101207.78
2023-05-21T03:17:17.144Z,101208.63
2023-05-21T03:19:45.556Z,101203.44
2023-05-21T03:22:13.655Z,101205.50
2023-05-21T03:24:42.216Z,101196.34
2023-05-21T03:27:10.256Z,101192.88
2023-05-21T03:29:39.960Z,101201.16
2023-05-21T03:32:09.030Z,101201.16
2023-05-21T03:34:38.390Z,101203.03
2023-05-21T03:37:06.681Z,101213.38
2023-05-21T03:39:35.214Z,101196.81
2023-05-21T03:42:03.132Z,101196.09
2023-05-21T03:44:45.978Z,101197.44
2023-05-21T03:47:32.651Z,101197.44
2023-05-21T03:50:03.949Z,101195.56
2023-05-21T03:52:31.826Z,101205.88
2023-05-21T03:54:59.675Z,101204.13
2023-05-21T03:57:27.748Z,101188.63
2023-05-21T03:59:56.011Z,101203.41
2023-05-21T04:02:24.094Z,101203.56
2023-05-21T04:04:53.573Z,101199.94
2023-05-21T04:07:23.075Z,101203.56
2023-05-21T04:09:50.896Z,101198.34
2023-05-21T04:12:20.176Z,101207.50
2023-05-21T04:14:48.382Z,101208.53
2023-05-21T04:17:16.246Z,101209.53
2023-05-21T04:19:45.367Z,101205.91
2023-05-21T04:22:14.607Z,101207.81
2023-05-21T04:24:43.814Z,101213.16
2023-05-21T04:27:16.779Z,101199.69
2023-05-21T04:29:45.484Z,101203.31
2023-05-21T04:32:15.170Z,101203.31
2023-05-21T04:34:43.196Z,101200.56
2023-05-21T04:37:11.249Z,101206.06
2023-05-21T04:39:41.029Z,101200.56
2023-05-21T04:42:11.152Z,101205.91
2023-05-21T04:44:40.352Z,101206.94
2023-05-21T04:47:08.937Z,101202.44
2023-05-21T04:49:37.488Z,101207.94
2023-05-21T04:52:05.766Z,101200.56
2023-05-21T04:54:33.824Z,101204.19
2023-05-21T04:57:02.961Z,101200.56
2023-05-21T04:59:32.191Z,101195.75
2023-05-21T05:02:00.057Z,101200.41
2023-05-21T05:04:28.298Z,101197.66
2023-05-21T05:06:56.743Z,101205.91
2023-05-21T05:09:25.174Z,101201.28
2023-05-21T05:11:53.733Z,101203.00
2023-05-21T05:14:21.597Z,101208.53
2023-05-21T05:16:50.972Z,101200.97
2023-05-21T05:19:19.163Z,101201.97
2023-05-21T05:21:47.848Z,101207.50
2023-05-21T05:24:16.211Z,101200.09
2023-05-21T05:26:44.646Z,101201.84
2023-05-21T05:29:12.700Z,101199.06
2023-05-21T05:31:40.691Z,101194.44
2023-05-21T05:34:10.177Z,101202.69
2023-05-21T05:36:39.234Z,101202.69
2023-05-21T05:39:07.715Z,101199.94
2023-05-21T05:41:35.728Z,101195.31
2023-05-21T05:44:03.557Z,101185.16
2023-05-21T05:46:34.651Z,101197.19
2023-05-21T05:49:02.549Z,101182.53
2023-05-21T05:51:31.731Z,101192.38
2023-05-21T05:54:00.212Z,101204.47
2023-05-21T05:56:28.173Z,101191.38
2023-05-21T05:58:56.076Z,101190.34
2023-05-21T06:01:24.702Z,101186.56
2023-05-21T06:03:53.008Z,101192.81
2023-05-21T06:06:21.087Z,101188.00
2023-05-21T06:08:50.544Z,101183.88
2023-05-21T06:11:21.627Z,101179.41
2023-05-21T06:13:49.464Z,101183.88
2023-05-21T06:16:18.818Z,101182.88
2023-05-21T06:18:46.964Z,101184.59
2023-05-21T06:21:14.835Z,101184.47
2023-05-21T06:23:42.859Z,101177.03
2023-05-21T06:26:12.364Z,101180.34
2023-05-21T06:28:41.167Z,101174.97
2023-05-21T06:31:11.727Z,101185.69
2023-05-21T06:33:40.353Z,101177.97
2023-05-21T06:36:08.538Z,101178.66
2023-05-21T06:38:36.570Z,101179.22
2023-05-21T06:41:04.967Z,101186.34
2023-05-21T06:43:48.737Z,101185.13
2023-05-21T06:46:39.760Z,101185.84
2023-05-21T06:49:10.049Z,101188.66
2023-05-21T06:51:38.631Z,101186.13
2023-05-21T06:54:06.801Z,101186.34
2023-05-21T06:56:36.634Z,101181.22
2023-05-21T06:59:05.956Z,101181.28
2023-05-21T07:01:34.393Z,101187.16
2023-05-21T07:04:03.209Z,101184.47
2023-05-21T07:06:32.095Z,101180.91
2023-05-21T07:09:00.226Z,101184.72
2023-05-21T07:14:00.341Z,101196.41
2023-05-21T07:16:29.998Z,101199.22
2023-05-21T07:18:58.708Z,101198.72
2023-05-21T07:21:26.820Z,101197.19
2023-05-21T07:23:54.709Z,101197.56
2023-05-21T07:26:22.628Z,101200.50
2023-05-21T07:28:51.009Z,101197.44
2023-05-21T07:31:19.227Z,101203.50
2023-05-21T07:33:51.055Z,101203.56
2023-05-21T07:36:22.524Z,101197.34
2023-05-21T07:38:50.444Z,101200.28
2023-05-21T07:41:18.903Z,101209.66
2023-05-21T07:43:48.346Z,101199.47
2023-05-21T07:46:16.877Z,101201.38
2023-05-21T07:48:46.581Z,101193.97
2023-05-21T07:51:16.696Z,101192.94
2023-05-21T07:53:44.952Z,101196.75
2023-05-21T07:56:15.563Z,101193.28
2023-05-21T07:58:48.253Z,101187.78
2023-05-21T08:01:17.310Z,101188.84
2023-05-21T08:03:45.330Z,101190.91
2023-05-21T08:06:13.292Z,101192.97
2023-05-21T08:08:43.294Z,101191.06
2023-05-21T08:11:11.303Z,101183.94
2023-05-21T08:13:39.272Z,101189.47
2023-05-21T08:16:09.150Z,101190.69
2023-05-21T08:18:37.165Z,101183.38
2023-05-21T08:21:05.355Z,101190.81
2023-05-21T08:23:33.310Z,101192.00
2023-05-21T08:26:03.077Z,101203.09
2023-05-21T08:28:31.829Z,101198.25
2023-05-21T08:31:01.752Z,101202.19
2023-05-21T08:33:31.911Z,101200.81
2023-05-21T08:36:00.329Z,101202.19
2023-05-21T08:38:32.915Z,101194.19
2023-05-21T08:41:13.181Z,101200.75
2023-05-21T08:43:41.260Z,101198.50
2023-05-21T08:46:12.688Z,101193.09
2023-05-21T08:48:41.873Z,101188.03
2023-05-21T08:51:10.386Z,101185.22
2023-05-21T08:53:45.679Z,101182.03
2023-05-21T08:56:18.292Z,101186.50
2023-05-21T08:58:56.669Z,101180.94
2023-05-21T09:01:29.056Z,101180.50
2023-05-21T09:04:16.129Z,101170.00
2023-05-21T09:06:49.395Z,101163.34
2023-05-21T09:09:34.090Z,101170.00
2023-05-21T09:12:04.106Z,101166.09
2023-05-21T09:14:33.538Z,101163.22
2023-05-21T09:17:07.016Z,101158.72
2023-05-21T09:19:35.058Z,101160.31
2023-05-21T09:22:04.565Z,101150.38
2023-05-21T09:24:36.321Z,101152.22
2023-05-21T09:27:09.712Z,101148.47
2023-05-21T09:29:37.581Z,101148.94
2023-05-21T09:32:12.217Z,101146.19
2023-05-21T09:34:41.188Z,101140.72
2023-05-21T09:37:19.914Z,101153.50
2023-05-21T09:42:53.173Z,101149.72
2023-05-21T09:45:21.936Z,101147.00
2023-05-21T09:47:53.008Z,101153.63
2023-05-21T09:50:22.867Z,101147.53
2023-05-21T09:52:52.887Z,101150.84
2023-05-21T09:55:24.683Z,101144.63
2023-05-21T09:57:54.452Z,101144.50
2023-05-21T10:00:23.484Z,101138.78
2023-05-21T10:02:56.444Z,101137.78
2023-05-21T10:05:27.783Z,101141.69
2023-05-21T10:08:01.855Z,101140.00
2023-05-21T10:10:30.878Z,101131.66
2023-05-21T10:13:02.181Z,101134.91
2023-05-21T10:15:33.530Z,101138.34
2023-05-21T10:18:02.847Z,101135.16
2023-05-21T10:20:30.986Z,101132.78
2023-05-21T10:23:00.200Z,101130.63
2023-05-21T10:25:30.042Z,101123.34
2023-05-21T10:27:58.421Z,101125.69
2023-05-21T10:30:28.268Z,101134.91
2023-05-21T10:32:57.805Z,101135.09
2023-05-21T10:35:25.795Z,101118.59
2023-05-21T10:37:55.413Z,101118.38
2023-05-21T10:40:23.506Z,101119.06
2023-05-21T10:43:13.089Z,101110.75
2023-05-21T10:45:59.256Z,101104.34
2023-05-21T10:48:44.019Z,101096.72
2023-05-21T10:51:21.566Z,101097.25
2023-05-21T10:54:02.123Z,101094.97
2023-05-21T10:56:33.858Z,101094.34
2023-05-21T10:59:15.224Z,101092.06
2023-05-21T11:01:45.216Z,101084.38
2023-05-21T11:04:15.626Z,101090.69
2023-05-21T11:06:48.428Z,101090.97
2023-05-21T11:09:17.052Z,101081.94
2023-05-21T11:11:46.339Z,101091.00
2023-05-21T11:14:36.245Z,101090.16
2023-05-21T11:17:11.256Z,101091.03
2023-05-21T11:19:41.418Z,101079.91
2023-05-21T11:22:11.367Z,101074.34
2023-05-21T11:24:41.606Z,101077.13
2023-05-21T11:27:09.714Z,101074.59
2023-05-21T11:29:41.480Z,101076.34
2023-05-21T11:32:12.236Z,101080.41
2023-05-21T11:34:46.003Z,101068.16
2023-05-21T11:37:30.000Z,101070.34
2023-05-21T11:39:59.514Z,101069.88
2023-05-21T11:42:34.740Z,101069.88
2023-05-21T11:45:04.142Z,101071.63
2023-05-21T11:47:33.657Z,101067.13
2023-05-21T11:50:03.142Z,101073.34
2023-05-21T11:52:32.789Z,101070.78
2023-05-21T11:55:00.616Z,101068.59
2023-05-21T11:57:31.261Z,101065.16
2023-05-21T12:00:01.221Z,101067.09
2023-05-21T12:02:32.393Z,101070.34
2023-05-21T12:05:01.850Z,101064.31
2023-05-21T12:07:31.326Z,101063.91
2023-05-21T12:09:59.660Z,101066.69
2023-05-21T12:12:35.542Z,101062.59
2023-05-21T12:15:10.670Z,101057.44
2023-05-21T12:17:39.216Z,101052.28
2023-05-21T12:20:10.807Z,101057.88
2023-05-21T12:22:43.331Z,101056.38
2023-05-21T12:25:12.171Z,101047.75
2023-05-21T12:27:42.039Z,101049.91
2023-05-21T12:30:11.115Z,101044.53
2023-05-21T12:32:44.054Z,101049.69
2023-05-21T12:35:23.781Z,101049.91
2023-05-21T12:37:52.353Z,101053.56
2023-05-21T12:40:21.251Z,101046.25
2023-05-21T12:42:49.393Z,101046.47
2023-05-21T12:45:18.930Z,101041.53
2023-05-21T12:47:55.936Z,101039.81
2023-05-21T12:50:25.707Z,101045.19
2023-05-21T12:52:56.945Z,101039.59
2023-05-21T12:55:26.464Z,101038.06
2023-05-21T12:58:04.424Z,101032.72
2023-05-21T13:00:33.306Z,101041.09
2023-05-21T13:03:02.008Z,101027.78
2023-05-21T13:05:31.745Z,101023.47
2023-05-21T13:07:59.646Z,101026.47
2023-05-21T13:10:27.524Z,101029.06
2023-05-21T13:12:55.382Z,101033.34
2023-05-21T13:15:23.340Z,101027.34
2023-05-21T13:17:52.539Z,101031.84
2023-05-21T13:20:23.782Z,101022.81
2023-05-21T13:22:53.948Z,101021.53
2023-05-21T13:25:24.650Z,101019.41
2023-05-21T13:27:53.994Z,101013.81
2023-05-21T13:30:22.562Z,101015.75
2023-05-21T13:32:52.213Z,101010.16
2023-05-21T13:35:20.537Z,101016.81
2023-05-21T13:37:48.473Z,101013.38
2023-05-21T13:40:18.223Z,101015.97
2023-05-21T13:42:47.450Z,101020.91
2023-05-21T13:45:17.099Z,101020.03
2023-05-21T13:47:47.300Z,101011.88
2023-05-21T13:50:15.318Z,101010.13
2023-05-21T13:52:43.194Z,101011.00
2023-05-21T13:55:11.792Z,101007.13
2023-05-21T13:57:41.061Z,101001.34
2023-05-21T14:00:12.632Z,101006.06
2023-05-21T14:02:43.195Z,101003.91
2023-05-21T14:05:12.011Z,101005.44
2023-05-21T14:07:40.963Z,100997.44
2023-05-21T14:10:09.887Z,100992.09
2023-05-21T14:12:38.532Z,101001.97
2023-05-21T14:15:08.723Z,101003.91
2023-05-21T14:17:36.603Z,101009.50
2023-05-21T14:20:04.692Z,101012.72
2023-05-21T14:22:32.559Z,101005.63
2023-05-21T14:25:00.408Z,101005.19
2023-05-21T14:27:28.229Z,101011.19
2023-05-21T14:29:56.114Z,101011.00
2023-05-21T14:32:25.448Z,101009.06
2023-05-21T14:34:53.356Z,101007.34
2023-05-21T14:37:21.230Z,101011.00
2023-05-21T14:39:49.134Z,101009.25
2023-05-21T14:42:17.217Z,101003.88
2023-05-21T14:44:45.227Z,101012.28
2023-05-21T14:47:13.109Z,101006.69
2023-05-21T14:49:42.292Z,101008.41
2023-05-21T14:52:10.145Z,101014.41
2023-05-21T14:54:38.536Z,101004.97
2023-05-21T14:57:06.677Z,101000.91
2023-05-21T14:59:34.649Z,101002.84
2023-05-21T15:02:02.599Z,101001.13
2023-05-21T15:04:30.588Z,101000.69
2023-05-21T15:06:59.913Z,100994.00
2023-05-21T15:09:27.858Z,100997.88
2023-05-21T15:11:55.734Z,100991.44
2023-05-21T15:14:23.595Z,100990.34
2023-05-21T15:16:51.562Z,100985.41
2023-05-21T15:19:19.477Z,100985.63
2023-05-21T15:21:47.388Z,100989.50
2023-05-21T15:24:16.598Z,100982.63
2023-05-21T15:26:44.554Z,100982.84
2023-05-21T15:29:12.617Z,100984.78
2023-05-21T15:31:40.439Z,100980.03
2023-05-21T15:34:08.291Z,100974.44
2023-05-21T15:36:36.596Z,100971.66
2023-05-21T15:39:06.056Z,100976.81
2023-05-21T15:41:38.462Z,100965.38
2023-05-21T15:44:06.556Z,100959.63
2023-05-21T15:46:34.557Z,100962.84
2023-05-21T15:49:02.586Z,100957.25
2023-05-21T15:51:30.725Z,100957.00
2023-05-21T15:53:58.647Z,100960.91
2023-05-21T15:56:26.659Z,100958.97
2023-05-21T15:58:58.517Z,100958.72
2023-05-21T16:01:27.469Z,100958.31
2023-05-21T16:03:55.670Z,100961.13
2023-05-21T16:06:24.014Z,100962.41
2023-05-21T16:08:51.892Z,100955.97
2023-05-21T16:11:19.915Z,100956.81
2023-05-21T16:13:47.830Z,100955.31
2023-05-21T16:16:17.273Z,100957.25
2023-05-21T16:18:45.346Z,100951.25
2023-05-21T16:21:13.500Z,100953.19
2023-05-21T16:23:41.461Z,100955.34
2023-05-21T16:26:10.819Z,100965.66
2023-05-21T16:28:39.096Z,100960.91
2023-05-21T16:31:08.534Z,100951.88
2023-05-21T16:33:37.795Z,100955.53
2023-05-21T16:36:05.885Z,100952.56
2023-05-21T16:38:33.792Z,100951.25
2023-05-21T16:41:01.695Z,100952.56
2023-05-21T16:43:29.555Z,100954.06
2023-05-21T16:45:57.427Z,100939.66
2023-05-21T16:48:25.233Z,100936.25
2023-05-21T16:50:54.622Z,100940.78
2023-05-21T16:53:22.614Z,100944.84
2023-05-21T16:55:50.561Z,100951.72
2023-05-21T16:58:18.982Z,100946.34
2023-05-21T17:00:47.284Z,100945.47
2023-05-21T17:03:15.973Z,100953.03
2023-05-21T17:05:44.026Z,100946.59
2023-05-21T17:08:13.250Z,100955.81
2023-05-21T17:10:41.109Z,100947.88
2023-05-21T17:13:21.524Z,100954.31
2023-05-21T17:15:51.382Z,100957.53
2023-05-21T17:18:19.446Z,100956.47
2023-05-21T17:20:47.423Z,100958.38
2023-05-21T17:23:16.916Z,100958.19
2023-05-21T17:25:44.862Z,100961.38
2023-05-21T17:28:12.685Z,100961.38
2023-05-21T17:30:40.780Z,100959.66
2023-05-21T17:33:10.259Z,100970.84
2023-05-21T17:35:39.021Z,100971.94
2023-05-21T17:38:07.162Z,100966.34
2023-05-21T17:40:36.398Z,100963.56
2023-05-21T17:43:07.143Z,100966.56
2023-05-21T17:45:35.532Z,100964.84
2023-05-21T17:48:03.810Z,100974.94
2023-05-21T17:50:32.057Z,100981.41
2023-05-21T17:53:00.486Z,100990.84
2023-05-21T17:55:28.441Z,101000.28
2023-05-21T17:57:57.851Z,100999.22
2023-05-21T18:00:25.990Z,100999.63
2023-05-21T18:02:53.878Z,100997.91
2023-05-21T18:05:22.802Z,100994.25
2023-05-21T18:07:50.863Z,100992.56
2023-05-21T18:10:18.765Z,100996.44
2023-05-21T18:12:46.973Z,100997.72
2023-05-21T18:15:16.853Z,100984.81
2023-05-21T18:17:45.101Z,100986.09
2023-05-21T18:20:14.389Z,100978.13
2023-05-21T18:22:42.418Z,100977.03
2023-05-21T18:25:10.915Z,100977.69
2023-05-21T18:27:38.848Z,100981.34
2023-05-21T18:30:08.330Z,100981.09
2023-05-21T18:32:39.500Z,100977.44
2023-05-21T18:35:08.261Z,100983.91
2023-05-21T18:37:37.306Z,100982.16
2023-05-21T18:40:07.473Z,100995.88
2023-05-21T18:42:35.875Z,100999.50
2023-05-21T18:45:07.530Z,101011.09
2023-05-21T18:47:39.114Z,101009.75
2023-05-21T18:50:09.170Z,101022.16
2023-05-21T18:52:37.152Z,101023.88
2023-05-21T18:55:05.566Z,101025.13
2023-05-21T18:57:34.869Z,101031.16
2023-05-21T19:00:03.098Z,101032.81
2023-05-21T19:02:31.139Z,101021.44
2023-05-21T19:05:01.976Z,101011.56
2023-05-21T19:07:30.316Z,101005.09
2023-05-21T19:10:00.058Z,101006.13
2023-05-21T19:12:29.385Z,101010.53
2023-05-21T19:14:57.631Z,101013.44
2023-05-21T19:17:25.711Z,101008.44
2023-05-21T19:19:56.060Z,101006.59
2023-05-21T19:22:27.214Z,101008.69
2023-05-21T19:24:56.018Z,101002.81
2023-05-21T19:27:23.904Z,100998.63
2023-05-21T19:29:52.560Z,100992.16
2023-05-21T19:32:23.544Z,100993.16
2023-05-21T19:34:51.616Z,101002.69
2023-05-21T19:37:19.516Z,101004.56
2023-05-21T19:39:50.422Z,100996.78
2023-05-21T19:42:21.626Z,100998.66
2023-05-21T19:44:50.445Z,101005.00
2023-05-21T19:47:18.544Z,101008.59
2023-05-21T19:49:46.707Z,101003.59
2023-05-21T19:52:14.580Z,101006.13
2023-05-21T19:54:42.860Z,100998.31
2023-05-21T19:57:13.601Z,101002.38
2023-05-21T19:59:41.960Z,101004.00
2023-05-21T20:02:15.053Z,100997.56
2023-05-21T20:04:43.250Z,100997.50
2023-05-21T20:07:11.423Z,100990.44
2023-05-21T20:09:40.486Z,100990.63
2023-05-21T20:12:09.627Z,100987.16
2023-05-21T20:14:39.020Z,100982.66
2023-05-21T20:17:07.482Z,100980.25
2023-05-21T20:19:37.856Z,100984.31
2023-05-21T20:22:06.665Z,100987.09
2023-05-21T20:24:34.836Z,100980.88
2023-05-21T20:27:02.919Z,100987.47
2023-05-21T20:29:31.912Z,100984.69
2023-05-21T20:32:01.500Z,100984.50
2023-05-21T20:34:29.815Z,100988.53
2023-05-21T20:36:58.338Z,100991.31
2023-05-21T20:39:27.326Z,100985.94
2023-05-21T20:41:55.955Z,100981.25
2023-05-21T20:44:25.962Z,100984.25
2023-05-21T20:46:54.958Z,100983.38
2023-05-21T20:49:25.873Z,100984.25
2023-05-21T20:51:53.953Z,100985.47
2023-05-21T20:54:22.261Z,100994.88
2023-05-21T20:56:50.790Z,100995.91
2023-05-21T20:59:18.746Z,100993.16
2023-05-21T21:01:46.787Z,100989.50
2023-05-21T21:04:14.890Z,100986.91
2023-05-21T21:06:46.589Z,100994.00
2023-05-21T21:09:14.762Z,100992.88
2023-05-21T21:11:42.735Z,100995.66
2023-05-21T21:14:10.943Z,101004.84
2023-05-21T21:16:39.102Z,101002.25
2023-05-21T21:19:07.198Z,100998.63
2023-05-21T21:21:36.117Z,101001.59
2023-05-21T21:24:06.265Z,101009.72
2023-05-21T21:26:34.244Z,100995.34
2023-05-21T21:29:02.952Z,100996.63
2023-05-21T21:31:31.345Z,101003.03
2023-05-21T21:33:59.248Z,100994.91
2023-05-21T21:36:28.805Z,100991.25
2023-05-21T21:39:01.901Z,100988.66
2023-05-21T21:41:56.922Z,100992.31
2023-05-21T21:44:24.950Z,100990.59
2023-05-21T21:46:52.869Z,100987.13
2023-05-21T21:49:20.813Z,100988.00
2023-05-21T21:51:48.978Z,100987.13
2023-05-21T21:54:17.238Z,100979.84
2023-05-21T21:56:45.226Z,100980.94
2023-05-21T21:59:15.009Z,100983.47
2023-05-21T22:01:44.047Z,100983.69
2023-05-21T22:04:12.121Z,100985.63
2023-05-21T22:06:40.091Z,100985.81
2023-05-21T22:09:08.615Z,100984.75
2023-05-21T22:11:36.656Z,100979.56
2023-05-21T22:14:05.354Z,100991.53
2023-05-21T22:16:34.940Z,100991.34
2023-05-21T22:19:02.803Z,100988.06
2023-05-21T22:21:33.139Z,100984.41
2023-05-21T22:24:01.215Z,100974.34
2023-05-21T22:26:29.137Z,100984.59
2023-05-21T22:28:59.061Z,100983.78
2023-05-21T22:31:27.098Z,100985.88
2023-05-21T22:33:56.328Z,100987.38
2023-05-21T22:36:24.225Z,100978.59
2023-05-21T22:38:52.048Z,100987.09
2023-05-21T22:41:20.041Z,100976.00
2023-05-21T22:43:47.874Z,100972.53
2023-05-21T22:46:15.766Z,100974.88
2023-05-21T22:48:46.143Z,100979.72
2023-05-21T22:51:15.687Z,100975.22
2023-05-21T22:53:43.660Z,100973.03
2023-05-21T22:56:11.515Z,100966.81
2023-05-21T22:58:39.337Z,100979.16
2023-05-21T23:01:07.411Z,100970.38
2023-05-21T23:03:35.418Z,100971.59
2023-05-21T23:06:03.376Z,100973.50
2023-05-21T23:08:32.762Z,100969.88
2023-05-21T23:11:00.787Z,100968.53
2023-05-21T23:13:28.780Z,100965.94
2023-05-21T23:15:59.769Z,100966.13
2023-05-21T23:18:27.815Z,100957.13
2023-05-21T23:20:55.804Z,100963.72
2023-05-21T23:23:23.644Z,100962.88
2023-05-21T23:25:53.186Z,100962.22
2023-05-21T23:28:21.072Z,100959.63
2023-05-21T23:30:48.885Z,100961.72
2023-05-21T23:33:16.862Z,100969.19
2023-05-21T23:35:44.727Z,100973.00
2023-05-21T23:38:12.565Z,100972.34
2023-05-21T23:40:40.648Z,100967.84
2023-05-21T23:43:10.194Z,100971.50
2023-05-21T23:45:38.148Z,100966.31
2023-05-21T23:48:06.501Z,100972.72
2023-05-21T23:50:34.453Z,100972.03
2023-05-21T23:53:02.375Z,100973.09
2023-05-21T23:55:30.325Z,100964.94
2023-05-21T23:57:58.171Z,100960.47
